Time;durP1;ratioP1;P1;durP2;ratioP2;P2;SDS_P1;SDS_P2;PMS_P1;PMS_P2;Temp;Humidity;BMP_temperature;BMP_pressure;BME280_temperature;BME280_humidity;BME280_pressure;Samples;Min_cycle;Max_cycle;Signal;HPM_P1;HPM_P2
2022/06/05 00:00:56;;;;;;;2.10;2.00;;;;;22.10;100674.00;;;;2072477;28;20237;-56
2022/06/05 00:02:00;;;;;;;2.10;2.00;;;;;22.10;100683.00;;;;2069303;28;20694;-56
2022/06/05 00:03:23;;;;;;;2.03;1.92;;;;;22.10;100697.00;;;;2051245;28;20658;-59
2022/06/05 00:04:48;;;;;;;2.08;1.73;;;;;22.10;100689.00;;;;2065151;28;20236;-62
2022/06/05 00:05:48;;;;;;;2.08;1.98;;;;;22.00;100681.00;;;;2072764;28;20222;-55
2022/06/05 00:06:52;;;;;;;2.00;1.90;;;;;22.00;100693.00;;;;2071071;28;20205;-61
2022/06/05 00:08:10;;;;;;;2.13;2.00;;;;;22.10;100691.00;;;;2071745;28;20217;-55
2022/06/05 00:09:40;;;;;;;2.00;1.90;;;;;22.10;100687.00;;;;2078335;28;20217;-55
2022/06/05 00:10:46;;;;;;;2.28;2.17;;;;;22.10;100687.00;;;;2073448;28;20224;-55
2022/06/05 00:12:08;;;;;;;2.03;1.92;;;;;22.10;100687.00;;;;2066922;28;20718;-55
2022/06/05 00:13:27;;;;;;;2.00;1.90;;;;;22.10;100690.00;;;;2064346;28;20233;-55
2022/06/05 00:14:27;;;;;;;2.10;1.95;;;;;22.10;100699.00;;;;2063994;28;20696;-58
2022/06/05 00:15:27;;;;;;;2.00;1.87;;;;;22.10;100695.00;;;;2063122;28;20254;-57
2022/06/05 00:16:28;;;;;;;2.20;2.00;;;;;22.10;100685.00;;;;2074067;28;20606;-57
2022/06/05 00:17:29;;;;;;;2.13;2.03;;;;;22.10;100694.00;;;;2078221;28;20213;-56
2022/06/05 00:18:36;;;;;;;1.92;1.83;;;;;22.10;100704.00;;;;2074114;28;20217;-58
2022/06/05 00:19:38;;;;;;;2.00;1.90;;;;;22.10;100691.00;;;;2067652;28;20214;-56
2022/06/05 00:20:41;;;;;;;1.75;1.65;;;;;22.10;100692.00;;;;2063354;28;20228;-56
2022/06/05 00:21:41;;;;;;;1.98;1.88;;;;;22.10;100691.00;;;;2061921;28;20210;-58
2022/06/05 00:22:42;;;;;;;2.00;1.90;;;;;22.10;100695.00;;;;2077785;28;20252;-56
2022/06/05 00:23:42;;;;;;;2.57;2.37;;;;;22.10;100662.00;;;;2075734;28;20257;-58
2022/06/05 00:24:42;;;;;;;2.20;2.10;;;;;22.10;100693.00;;;;2070532;28;20210;-55
2022/06/05 00:26:15;;;;;;;2.27;2.17;;;;;22.10;100693.00;;;;2070141;28;20214;-55
2022/06/05 00:27:32;;;;;;;1.95;1.85;;;;;22.10;100704.00;;;;2072841;28;20244;-59
2022/06/05 00:28:57;;;;;;;2.08;1.98;;;;;22.10;100689.00;;;;2078246;28;20835;-57
2022/06/05 00:29:59;;;;;;;2.28;2.10;;;;;22.10;100676.00;;;;2067599;28;20220;-56
2022/06/05 00:31:28;;;;;;;2.10;2.00;;;;;22.10;100670.00;;;;2072865;28;20209;-59
2022/06/05 00:32:29;;;;;;;2.17;2.08;;;;;22.10;100666.00;;;;2069656;28;20300;-56
2022/06/05 00:33:35;;;;;;;2.00;1.90;;;;;22.10;100676.00;;;;2075015;28;20768;-60
2022/06/05 00:34:36;;;;;;;2.30;2.20;;;;;22.10;100671.00;;;;2078229;28;20304;-57
2022/06/05 00:35:42;;;;;;;2.43;2.23;;;;;22.10;100664.00;;;;2074652;28;20230;-62
2022/06/05 00:37:12;;;;;;;2.05;1.95;;;;;22.10;100670.00;;;;2071237;28;20226;-59
2022/06/05 00:38:16;;;;;;;2.10;2.00;;;;;22.10;100668.00;;;;2061082;28;20207;-55
2022/06/05 00:39:38;;;;;;;2.17;2.08;;;;;22.00;100673.00;;;;2061837;28;20206;-60
2022/06/05 00:41:06;;;;;;;1.90;1.80;;;;;22.00;100674.00;;;;2073479;28;20214;-58
2022/06/05 00:42:08;;;;;;;2.13;2.03;;;;;22.00;100673.00;;;;2077581;28;20217;-55
2022/06/05 00:43:10;;;;;;;2.10;2.00;;;;;22.00;100664.00;;;;2064917;28;20214;-59
2022/06/05 00:44:14;;;;;;;2.40;2.20;;;;;22.10;100667.00;;;;2067209;28;20214;-56
2022/06/05 00:45:14;;;;;;;1.90;1.80;;;;;22.00;100663.00;;;;2057837;28;20216;-57
2022/06/05 00:46:14;;;;;;;2.20;2.10;;;;;22.10;100662.00;;;;2066051;28;20218;-62
2022/06/05 00:47:17;;;;;;;2.07;1.97;;;;;22.10;100658.00;;;;2073062;28;20765;-60
2022/06/05 00:48:17;;;;;;;2.15;1.95;;;;;22.00;100643.00;;;;2071868;28;20206;-57
2022/06/05 00:49:19;;;;;;;2.17;2.07;;;;;22.10;100648.00;;;;2066902;28;20298;-58
2022/06/05 00:50:22;;;;;;;1.90;1.80;;;;;22.00;100638.00;;;;2064270;28;20289;-57
2022/06/05 00:51:22;;;;;;;2.60;2.40;;;;;22.00;100659.00;;;;2062965;28;20744;-57
2022/06/05 00:52:24;;;;;;;2.10;2.00;;;;;22.00;100657.00;;;;2063876;28;20226;-55
2022/06/05 00:53:24;;;;;;;2.10;2.00;;;;;22.10;100662.00;;;;2066690;28;20312;-58
2022/06/05 00:54:25;;;;;;;2.20;2.10;;;;;22.00;100652.00;;;;2068210;28;20601;-61
2022/06/05 00:55:27;;;;;;;2.20;2.10;;;;;22.00;100655.00;;;;2076818;28;20218;-60
2022/06/05 00:56:27;;;;;;;2.38;2.25;;;;;22.10;100652.00;;;;2059189;28;20273;-60
2022/06/05 00:57:29;;;;;;;2.13;1.93;;;;;22.10;100655.00;;;;2059425;28;20273;-58
2022/06/05 00:58:29;;;;;;;2.10;2.00;;;;;22.10;100639.00;;;;2063762;28;20901;-60
2022/06/05 00:59:30;;;;;;;1.87;1.77;;;;;22.10;100652.00;;;;2063003;28;20277;-58
2022/06/05 01:00:34;;;;;;;2.20;2.10;;;;;22.00;100649.00;;;;2064281;28;20222;-56
2022/06/05 01:01:34;;;;;;;2.00;1.90;;;;;22.00;100637.00;;;;2069814;28;20221;-57
2022/06/05 01:02:34;;;;;;;2.07;1.97;;;;;22.00;100644.00;;;;2060596;28;20254;-56
2022/06/05 01:03:35;;;;;;;2.10;2.00;;;;;22.00;100643.00;;;;2056199;28;20235;-55
2022/06/05 01:04:36;;;;;;;2.03;1.93;;;;;22.00;100639.00;;;;2078562;28;20217;-59
2022/06/05 01:05:37;;;;;;;2.17;2.08;;;;;22.00;100646.00;;;;2063206;28;20221;-57
2022/06/05 01:06:37;;;;;;;2.30;2.20;;;;;22.00;100649.00;;;;2070436;28;20230;-55
2022/06/05 01:07:38;;;;;;;2.07;1.97;;;;;22.00;100645.00;;;;2076627;28;20209;-59
2022/06/05 01:08:39;;;;;;;2.20;2.10;;;;;22.00;100647.00;;;;2076944;28;20222;-58
2022/06/05 01:09:41;;;;;;;2.30;2.20;;;;;22.00;100638.00;;;;2078417;28;20212;-61
2022/06/05 01:11:02;;;;;;;2.20;2.10;;;;;22.00;100650.00;;;;2075089;28;20213;-56
2022/06/05 01:12:35;;;;;;;2.00;1.90;;;;;22.00;100638.00;;;;2073223;28;20210;-56
2022/06/05 01:14:03;;;;;;;2.25;2.10;;;;;22.00;100647.00;;;;2076325;28;20231;-60
2022/06/05 01:15:34;;;;;;;2.47;2.28;;;;;22.00;100635.00;;;;2073350;28;20224;-57
2022/06/05 01:16:41;;;;;;;2.22;2.13;;;;;22.00;100635.00;;;;2076234;28;20210;-59
2022/06/05 01:17:53;;;;;;;2.13;2.03;;;;;22.10;100642.00;;;;2069875;28;20213;-57
2022/06/05 01:19:15;;;;;;;2.42;2.25;;;;;22.10;100633.00;;;;2072184;28;20202;-57
2022/06/05 01:20:37;;;;;;;2.10;2.00;;;;;22.10;100635.00;;;;2078248;28;20232;-58
2022/06/05 01:22:15;;;;;;;2.53;2.33;;;;;22.10;100629.00;;;;2076788;28;20244;-57
2022/06/05 01:23:27;;;;;;;2.40;2.20;;;;;22.00;100632.00;;;;2078735;28;20271;-59
2022/06/05 01:24:46;;;;;;;2.20;2.10;;;;;22.00;100624.00;;;;2078828;28;20296;-55
2022/06/05 01:26:22;;;;;;;2.55;2.40;;;;;22.00;100632.00;;;;2077747;28;20217;-57
2022/06/05 01:27:24;;;;;;;2.65;2.45;;;;;22.00;100629.00;;;;2077964;28;20280;-57
2022/06/05 01:28:27;;;;;;;2.33;2.13;;;;;22.00;100628.00;;;;2061677;28;20218;-55
2022/06/05 01:29:39;;;;;;;2.60;2.40;;;;;22.00;100635.00;;;;2061697;28;20642;-56
2022/06/05 01:30:46;;;;;;;2.72;2.53;;;;;22.00;100632.00;;;;2048438;28;20226;-55
2022/06/05 01:31:54;;;;;;;2.55;2.35;;;;;22.00;100634.00;;;;2048527;28;20216;-57
2022/06/05 01:33:01;;;;;;;2.28;2.17;;;;;22.00;100630.00;;;;2048670;28;20223;-58
2022/06/05 01:34:10;;;;;;;2.50;2.40;;;;;22.00;100642.00;;;;2055382;28;20274;-56
2022/06/05 01:35:17;;;;;;;2.50;2.30;;;;;22.00;100636.00;;;;2066708;28;20230;-57
2022/06/05 01:36:33;;;;;;;2.70;2.50;;;;;21.80;100630.00;;;;2068576;28;20210;-56
2022/06/05 01:37:37;;;;;;;2.30;2.20;;;;;22.00;100622.00;;;;2064329;28;20877;-55
2022/06/05 01:38:45;;;;;;;2.35;2.25;;;;;22.00;100626.00;;;;2066338;28;20225;-58
2022/06/05 01:39:50;;;;;;;2.45;2.25;;;;;22.00;100631.00;;;;2078610;28;20225;-58
2022/06/05 01:40:52;;;;;;;2.50;2.30;;;;;22.00;100623.00;;;;2078587;28;20278;-56
2022/06/05 01:41:54;;;;;;;2.60;2.40;;;;;22.00;100618.00;;;;2070126;28;20753;-57
2022/06/05 01:43:03;;;;;;;2.47;2.35;;;;;22.00;100615.00;;;;2070647;28;20217;-56
2022/06/05 01:44:05;;;;;;;2.40;2.30;;;;;22.00;100613.00;;;;2074867;28;20214;-57
2022/06/05 01:45:09;;;;;;;2.10;2.00;;;;;22.00;100610.00;;;;2062106;28;20214;-55
2022/06/05 01:46:13;;;;;;;2.30;2.20;;;;;22.00;100602.00;;;;2054084;28;20762;-55
2022/06/05 01:47:18;;;;;;;2.33;2.20;;;;;22.00;100591.00;;;;2054026;28;20239;-56
2022/06/05 01:48:21;;;;;;;2.25;2.15;;;;;22.00;100596.00;;;;2055560;28;20271;-56
2022/06/05 01:49:31;;;;;;;2.58;2.35;;;;;22.00;100596.00;;;;2062396;28;20311;-57
2022/06/05 01:50:43;;;;;;;2.40;2.30;;;;;22.00;100582.00;;;;2075373;28;20209;-57
2022/06/05 01:52:00;;;;;;;2.50;2.40;;;;;22.00;100576.00;;;;2059477;28;20294;-58
2022/06/05 01:53:08;;;;;;;2.30;2.20;;;;;22.00;100590.00;;;;2065281;28;20656;-56
2022/06/05 01:54:11;;;;;;;2.28;2.17;;;;;21.80;100597.00;;;;2062953;28;20682;-57
2022/06/05 01:55:21;;;;;;;2.35;2.25;;;;;22.00;100586.00;;;;2062328;28;20231;-58
2022/06/05 01:56:30;;;;;;;2.67;2.50;;;;;22.00;100594.00;;;;2061760;28;20222;-56
2022/06/05 01:57:30;;;;;;;2.60;2.40;;;;;22.00;100573.00;;;;2063469;28;20219;-55
2022/06/05 01:58:39;;;;;;;2.60;2.40;;;;;22.00;100591.00;;;;2062411;28;20223;-56
2022/06/05 01:59:52;;;;;;;2.33;2.22;;;;;22.00;100589.00;;;;2062987;28;20226;-57
2022/06/05 02:00:54;;;;;;;2.80;2.60;;;;;22.00;100579.00;;;;2070314;28;20711;-58
2022/06/05 02:01:56;;;;;;;2.65;2.45;;;;;22.00;100569.00;;;;2062226;28;20215;-56
2022/06/05 02:03:09;;;;;;;2.42;2.33;;;;;22.00;100574.00;;;;2061857;28;20211;-55
2022/06/05 02:04:18;;;;;;;2.00;1.90;;;;;22.00;100580.00;;;;2056001;28;20215;-56
2022/06/05 02:05:22;;;;;;;2.15;2.05;;;;;22.00;100575.00;;;;2046608;28;20219;-56
2022/06/05 02:06:28;;;;;;;2.85;2.65;;;;;22.00;100574.00;;;;2048278;28;20286;-56
2022/06/05 02:07:32;;;;;;;2.40;2.20;;;;;22.00;100567.00;;;;2069844;28;20693;-56
2022/06/05 02:08:43;;;;;;;2.63;2.42;;;;;22.00;100563.00;;;;2067894;28;20230;-56
2022/06/05 02:09:50;;;;;;;2.42;2.25;;;;;22.00;100570.00;;;;2068930;28;20386;-56
2022/06/05 02:10:56;;;;;;;2.50;2.40;;;;;22.00;100552.00;;;;2071531;28;20949;-57
2022/06/05 02:11:56;;;;;;;2.20;2.10;;;;;22.00;100561.00;;;;2063756;28;20222;-58
2022/06/05 02:12:57;;;;;;;2.40;2.20;;;;;22.00;100562.00;;;;2054917;28;20657;-56
2022/06/05 02:14:07;;;;;;;2.70;2.50;;;;;22.00;100555.00;;;;2054695;28;20220;-55
2022/06/05 02:15:08;;;;;;;2.40;2.30;;;;;22.00;100561.00;;;;2064492;28;20462;-56
2022/06/05 02:16:08;;;;;;;2.80;2.60;;;;;22.00;100554.00;;;;2069842;28;20683;-58
2022/06/05 02:17:09;;;;;;;2.40;2.30;;;;;22.00;100555.00;;;;2062506;28;20695;-58
2022/06/05 02:18:10;;;;;;;2.37;2.27;;;;;22.00;100552.00;;;;2070601;28;20222;-55
2022/06/05 02:19:16;;;;;;;2.50;2.40;;;;;22.00;100555.00;;;;2062225;28;20229;-55
2022/06/05 02:20:16;;;;;;;2.50;2.30;;;;;22.00;100551.00;;;;2048158;28;20463;-56
2022/06/05 02:21:17;;;;;;;2.50;2.30;;;;;22.00;100547.00;;;;2078874;28;20395;-56
2022/06/05 02:22:20;;;;;;;2.60;2.40;;;;;22.00;100544.00;;;;2078777;28;20298;-57
2022/06/05 02:23:23;;;;;;;2.67;2.47;;;;;22.00;100549.00;;;;2078405;28;20216;-57
2022/06/05 02:24:23;;;;;;;2.30;2.20;;;;;22.00;100550.00;;;;2078246;28;20298;-56
2022/06/05 02:25:24;;;;;;;2.47;2.27;;;;;22.00;100548.00;;;;2077740;28;20236;-55
2022/06/05 02:26:26;;;;;;;2.60;2.45;;;;;22.00;100545.00;;;;2070626;28;20598;-59
2022/06/05 02:27:27;;;;;;;2.78;2.53;;;;;22.00;100544.00;;;;2069498;28;20341;-57
2022/06/05 02:28:27;;;;;;;3.20;3.00;;;;;22.00;100524.00;;;;2058207;28;20289;-56
2022/06/05 02:29:27;;;;;;;2.73;2.53;;;;;22.00;100545.00;;;;2069011;28;20627;-59
2022/06/05 02:30:41;;;;;;;2.77;2.57;;;;;22.00;100535.00;;;;2062735;28;20207;-56
2022/06/05 02:32:07;;;;;;;2.70;2.50;;;;;22.00;100534.00;;;;2066216;28;20218;-54
2022/06/05 02:33:12;;;;;;;2.70;2.50;;;;;22.00;100532.00;;;;2075655;28;20241;-57
2022/06/05 02:34:17;;;;;;;2.28;2.17;;;;;22.00;100524.00;;;;2072782;28;20308;-58
2022/06/05 02:35:29;;;;;;;2.83;2.63;;;;;22.00;100527.00;;;;2064713;28;20281;-56
2022/06/05 02:37:09;;;;;;;2.58;2.40;;;;;22.00;100522.00;;;;2075176;28;20221;-58
2022/06/05 02:38:27;;;;;;;2.70;2.50;;;;;22.00;100515.00;;;;2057461;28;20372;-61
2022/06/05 02:39:30;;;;;;;2.70;2.50;;;;;22.00;100506.00;;;;2074592;28;20229;-57
2022/06/05 02:41:09;;;;;;;2.80;2.60;;;;;22.00;100505.00;;;;2073222;28;20405;-59
2022/06/05 02:42:12;;;;;;;3.05;2.85;;;;;22.00;100504.00;;;;2072611;28;20210;-57
2022/06/05 02:43:15;;;;;;;2.65;2.45;;;;;22.00;100508.00;;;;2080241;28;20226;-55
2022/06/05 02:44:29;;;;;;;2.92;2.72;;;;;22.00;100503.00;;;;2075552;28;20252;-57
2022/06/05 02:45:32;;;;;;;2.85;2.65;;;;;22.00;100501.00;;;;2056114;28;20215;-61
2022/06/05 02:46:32;;;;;;;2.88;2.67;;;;;22.00;100501.00;;;;2063584;28;20222;-55
2022/06/05 02:47:49;;;;;;;2.30;2.20;;;;;22.00;100490.00;;;;2065650;28;20753;-56
2022/06/05 02:49:13;;;;;;;2.70;2.50;;;;;22.00;100482.00;;;;2067762;28;20686;-62
2022/06/05 02:50:17;;;;;;;2.60;2.40;;;;;22.00;100494.00;;;;2075864;28;20214;-60
2022/06/05 02:51:38;;;;;;;2.60;2.40;;;;;22.00;100482.00;;;;2070113;28;20710;-56
2022/06/05 02:52:38;;;;;;;2.63;2.50;;;;;22.00;100485.00;;;;2068899;28;20225;-55
2022/06/05 02:53:50;;;;;;;2.73;2.53;;;;;22.00;100482.00;;;;2071083;28;20724;-55
2022/06/05 02:54:56;;;;;;;2.90;2.70;;;;;22.00;100477.00;;;;2071566;28;20240;-55
2022/06/05 02:55:56;;;;;;;2.70;2.50;;;;;22.00;100472.00;;;;2071366;28;20626;-57
2022/06/05 02:56:56;;;;;;;2.77;2.57;;;;;22.00;100474.00;;;;2075588;28;20214;-56
2022/06/05 02:57:57;;;;;;;2.83;2.63;;;;;22.00;100472.00;;;;2077649;28;20225;-56
2022/06/05 02:58:59;;;;;;;2.50;2.40;;;;;22.00;100470.00;;;;2070131;28;20226;-60
2022/06/05 02:59:59;;;;;;;2.60;2.50;;;;;22.00;100462.00;;;;2066928;28;20210;-55
2022/06/05 03:03:57;;;;;;;2.60;2.40;;;;;22.00;100465.00;;;;2056685;28;20214;-54
2022/06/05 03:04:57;;;;;;;2.73;2.53;;;;;22.00;100459.00;;;;2056245;28;20305;-57
2022/06/05 03:06:01;;;;;;;2.67;2.57;;;;;22.00;100457.00;;;;2045274;28;20701;-58
2022/06/05 03:07:02;;;;;;;2.70;2.50;;;;;22.00;100449.00;;;;2045695;28;20216;-58
2022/06/05 03:08:02;;;;;;;2.70;2.50;;;;;22.00;100455.00;;;;2052289;28;20219;-58
2022/06/05 03:09:04;;;;;;;3.00;2.80;;;;;22.00;100460.00;;;;2058970;28;20714;-59
2022/06/05 03:10:04;;;;;;;2.92;2.72;;;;;22.00;100457.00;;;;2073544;28;20217;-61
2022/06/05 03:11:05;;;;;;;3.23;3.03;;;;;22.00;100455.00;;;;2073968;28;20215;-56
2022/06/05 03:12:05;;;;;;;2.57;2.47;;;;;22.00;100449.00;;;;2076073;28;20717;-60
2022/06/05 03:13:05;;;;;;;2.60;2.50;;;;;22.00;100446.00;;;;2078438;28;20902;-57
2022/06/05 03:14:06;;;;;;;3.00;2.80;;;;;22.00;100440.00;;;;2074444;28;20214;-56
2022/06/05 03:15:07;;;;;;;2.70;2.50;;;;;22.00;100445.00;;;;2078251;28;20275;-55
2022/06/05 03:16:10;;;;;;;2.93;2.73;;;;;22.00;100440.00;;;;2075356;28;20259;-58
2022/06/05 03:17:11;;;;;;;2.90;2.70;;;;;22.00;100443.00;;;;2076715;28;20528;-55
2022/06/05 03:18:13;;;;;;;2.50;2.40;;;;;22.00;100441.00;;;;2072067;28;20214;-57
2022/06/05 03:19:13;;;;;;;3.08;2.88;;;;;22.00;100446.00;;;;2073324;28;20812;-57
2022/06/05 03:20:14;;;;;;;2.97;2.77;;;;;22.00;100446.00;;;;2070663;28;20218;-56
2022/06/05 03:21:14;;;;;;;2.60;2.40;;;;;22.00;100450.00;;;;2074236;28;20301;-56
2022/06/05 03:22:15;;;;;;;2.90;2.70;;;;;22.00;100441.00;;;;2078731;28;20218;-56
2022/06/05 03:23:15;;;;;;;2.83;2.63;;;;;22.00;100434.00;;;;2079086;28;20249;-56
2022/06/05 03:24:15;;;;;;;2.93;2.73;;;;;22.00;100440.00;;;;2078935;28;20209;-56
2022/06/05 03:25:21;;;;;;;3.00;2.80;;;;;22.00;100432.00;;;;2078903;28;20217;-55
2022/06/05 03:26:22;;;;;;;2.80;2.60;;;;;22.00;100432.00;;;;2070017;28;20210;-56
2022/06/05 03:27:22;;;;;;;3.00;2.80;;;;;22.00;100431.00;;;;2063850;28;20557;-56
2022/06/05 03:28:23;;;;;;;2.40;2.30;;;;;22.00;100430.00;;;;2070376;28;20472;-57
2022/06/05 03:29:23;;;;;;;2.90;2.70;;;;;22.00;100426.00;;;;2069904;28;20237;-56
2022/06/05 03:30:23;;;;;;;3.17;2.97;;;;;21.90;100428.00;;;;2070318;28;20305;-56
2022/06/05 03:31:24;;;;;;;2.70;2.50;;;;;22.00;100450.00;;;;2070972;28;20249;-57
2022/06/05 03:32:25;;;;;;;2.40;2.30;;;;;22.00;100432.00;;;;2070289;28;20587;-57
2022/06/05 03:33:25;;;;;;;3.30;3.10;;;;;22.00;100379.00;;;;2061850;28;20949;-60
2022/06/05 03:34:25;;;;;;;2.70;2.50;;;;;22.00;100432.00;;;;2061907;28;20454;-55
2022/06/05 03:35:26;;;;;;;2.90;2.70;;;;;22.00;100440.00;;;;2069559;28;20221;-57
2022/06/05 03:36:26;;;;;;;2.90;2.70;;;;;22.00;100434.00;;;;2078352;28;20213;-57
2022/06/05 03:37:27;;;;;;;2.97;2.77;;;;;22.00;100433.00;;;;2070514;28;20214;-58
2022/06/05 03:38:27;;;;;;;2.87;2.67;;;;;22.00;100436.00;;;;2070486;28;20225;-57
2022/06/05 03:39:27;;;;;;;2.70;2.50;;;;;22.00;100440.00;;;;2070842;28;20316;-56
2022/06/05 03:40:28;;;;;;;2.90;2.70;;;;;22.00;100436.00;;;;2070411;28;20229;-55
2022/06/05 03:41:28;;;;;;;2.70;2.60;;;;;22.00;100443.00;;;;2070199;28;20233;-56
2022/06/05 03:42:28;;;;;;;2.43;2.33;;;;;22.00;100445.00;;;;2069766;28;20297;-57
2022/06/05 03:43:29;;;;;;;2.83;2.60;;;;;21.90;100445.00;;;;2070557;28;20218;-56
2022/06/05 03:44:29;;;;;;;2.97;2.77;;;;;22.00;100457.00;;;;2069643;28;20218;-56
2022/06/05 03:45:29;;;;;;;2.70;2.50;;;;;22.00;100442.00;;;;2070164;28;20313;-56
2022/06/05 03:46:30;;;;;;;2.90;2.70;;;;;22.00;100445.00;;;;2069682;28;20717;-56
2022/06/05 03:47:30;;;;;;;3.00;2.80;;;;;22.00;100439.00;;;;2066103;28;20319;-61
2022/06/05 03:48:30;;;;;;;3.00;2.80;;;;;22.00;100425.00;;;;2071712;28;20222;-59
2022/06/05 03:49:31;;;;;;;2.90;2.70;;;;;21.90;100440.00;;;;2064188;28;20226;-57
2022/06/05 03:50:32;;;;;;;2.80;2.60;;;;;21.90;100426.00;;;;2070089;28;20230;-58
2022/06/05 03:51:32;;;;;;;2.87;2.67;;;;;21.70;100427.00;;;;2077248;28;20487;-55
2022/06/05 03:52:32;;;;;;;3.00;2.80;;;;;22.00;100437.00;;;;2075632;28;20225;-58
2022/06/05 03:53:33;;;;;;;2.70;2.50;;;;;22.00;100436.00;;;;2077983;28;20221;-57
2022/06/05 03:54:33;;;;;;;2.70;2.50;;;;;22.00;100433.00;;;;2074727;28;20690;-59
2022/06/05 03:55:34;;;;;;;3.00;2.80;;;;;22.00;100430.00;;;;2073194;28;20214;-55
2022/06/05 03:56:34;;;;;;;3.03;2.83;;;;;22.00;100437.00;;;;2075082;28;20217;-59
2022/06/05 03:57:34;;;;;;;2.57;2.40;;;;;22.00;100444.00;;;;2075669;28;20233;-58
2022/06/05 03:58:35;;;;;;;3.00;2.70;;;;;21.90;100428.00;;;;2078108;28;20286;-55
2022/06/05 03:59:35;;;;;;;3.00;2.80;;;;;22.00;100432.00;;;;2078714;28;20224;-58
2022/06/05 04:00:36;;;;;;;2.90;2.70;;;;;22.00;100425.00;;;;2077095;28;20233;-58
2022/06/05 04:01:36;;;;;;;3.00;2.80;;;;;22.00;100431.00;;;;2070012;28;20214;-58
2022/06/05 04:02:36;;;;;;;3.10;2.90;;;;;22.00;100430.00;;;;2071375;28;20951;-57
2022/06/05 04:03:37;;;;;;;3.00;2.80;;;;;22.00;100426.00;;;;2070015;28;20693;-55
2022/06/05 04:04:37;;;;;;;2.80;2.60;;;;;22.00;100420.00;;;;2069894;28;20246;-57
2022/06/05 04:05:38;;;;;;;2.60;2.50;;;;;22.00;100421.00;;;;2070072;28;20568;-57
2022/06/05 04:06:38;;;;;;;3.03;2.83;;;;;22.00;100415.00;;;;2070755;28;21360;-58
2022/06/05 04:07:39;;;;;;;2.70;2.50;;;;;22.00;100415.00;;;;2070403;28;20601;-57
2022/06/05 04:08:40;;;;;;;3.15;2.95;;;;;22.00;100420.00;;;;2069881;28;20222;-57
2022/06/05 04:09:40;;;;;;;3.03;2.83;;;;;22.00;100409.00;;;;2060061;28;20222;-56
2022/06/05 04:10:40;;;;;;;3.20;3.00;;;;;22.00;100414.00;;;;2069674;28;20297;-55
2022/06/05 04:11:41;;;;;;;3.00;2.80;;;;;22.00;100405.00;;;;2061605;28;20214;-57
2022/06/05 04:12:41;;;;;;;3.00;2.80;;;;;21.70;100420.00;;;;2053807;28;20591;-57
2022/06/05 04:13:41;;;;;;;3.00;2.80;;;;;22.00;100413.00;;;;2053777;28;20227;-55
2022/06/05 04:14:42;;;;;;;3.13;2.93;;;;;22.00;100418.00;;;;2053600;28;20699;-57
2022/06/05 04:15:42;;;;;;;3.20;2.90;;;;;22.00;100417.00;;;;2069201;28;20738;-57
2022/06/05 04:16:42;;;;;;;2.87;2.67;;;;;22.00;100415.00;;;;2070465;28;20214;-56
2022/06/05 04:17:43;;;;;;;3.10;2.90;;;;;22.00;100419.00;;;;2070461;28;20245;-57
2022/06/05 04:18:43;;;;;;;3.50;3.20;;;;;22.00;100422.00;;;;2070534;28;20218;-59
2022/06/05 04:19:43;;;;;;;3.10;2.90;;;;;22.00;100427.00;;;;2070583;28;20218;-57
2022/06/05 04:20:44;;;;;;;3.17;2.97;;;;;22.00;100430.00;;;;2070516;28;20225;-54
2022/06/05 04:21:46;;;;;;;3.03;2.83;;;;;22.00;100426.00;;;;2070259;28;20222;-55
2022/06/05 04:22:47;;;;;;;3.17;2.97;;;;;22.00;100429.00;;;;2069358;28;20218;-56
2022/06/05 04:23:47;;;;;;;2.87;2.60;;;;;22.00;100428.00;;;;2069593;28;20503;-57
2022/06/05 04:24:48;;;;;;;3.17;2.97;;;;;22.00;100428.00;;;;2069678;28;20210;-57
2022/06/05 04:25:48;;;;;;;2.93;2.73;;;;;22.00;100429.00;;;;2060979;28;20206;-57
2022/06/05 04:26:49;;;;;;;3.03;2.83;;;;;22.00;100425.00;;;;2069515;28;20210;-56
2022/06/05 04:27:49;;;;;;;3.10;2.90;;;;;22.00;100416.00;;;;2070411;28;20213;-56
2022/06/05 04:28:52;;;;;;;3.30;3.10;;;;;22.00;100421.00;;;;2070159;28;20293;-57
2022/06/05 04:29:52;;;;;;;2.90;2.70;;;;;22.00;100419.00;;;;2069880;28;20787;-55
2022/06/05 04:30:52;;;;;;;3.37;3.17;;;;;22.00;100418.00;;;;2069904;28;20210;-56
2022/06/05 04:31:53;;;;;;;3.20;3.00;;;;;22.00;100418.00;;;;2070272;28;20218;-56
2022/06/05 04:32:53;;;;;;;3.40;3.20;;;;;22.00;100413.00;;;;2070361;28;20255;-57
2022/06/05 04:33:56;;;;;;;3.17;2.97;;;;;22.00;100419.00;;;;2069717;28;21010;-58
2022/06/05 04:34:57;;;;;;;3.20;2.88;;;;;22.00;100417.00;;;;2061465;28;20301;-55
2022/06/05 04:35:58;;;;;;;3.00;2.80;;;;;22.00;100412.00;;;;2067629;28;20218;-57
2022/06/05 04:36:58;;;;;;;3.10;2.90;;;;;22.00;100406.00;;;;2070738;28;20214;-57
2022/06/05 04:37:59;;;;;;;2.80;2.60;;;;;22.00;100403.00;;;;2078331;28;20229;-56
2022/06/05 04:38:59;;;;;;;2.97;2.77;;;;;22.00;100410.00;;;;2078569;28;20645;-56
2022/06/05 04:39:59;;;;;;;3.07;2.87;;;;;22.00;100413.00;;;;2077821;28;20217;-57
2022/06/05 04:41:00;;;;;;;3.00;2.80;;;;;22.00;100415.00;;;;2077644;28;20598;-56
2022/06/05 04:42:00;;;;;;;3.17;2.97;;;;;21.90;100423.00;;;;2076583;28;20789;-56
2022/06/05 04:43:00;;;;;;;3.07;2.87;;;;;22.00;100412.00;;;;2078666;28;20783;-57
2022/06/05 04:44:01;;;;;;;2.90;2.70;;;;;22.00;100413.00;;;;2078546;28;20827;-56
2022/06/05 04:45:01;;;;;;;2.80;2.60;;;;;22.00;100409.00;;;;2078360;28;20221;-56
2022/06/05 04:46:01;;;;;;;2.73;2.60;;;;;22.00;100416.00;;;;2077740;28;20233;-57
2022/06/05 04:47:02;;;;;;;3.03;2.83;;;;;22.00;100424.00;;;;2077698;28;20217;-57
2022/06/05 04:48:02;;;;;;;3.07;2.87;;;;;22.00;100416.00;;;;2071893;28;20214;-57
2022/06/05 04:49:04;;;;;;;3.00;2.80;;;;;22.00;100414.00;;;;2070120;28;20218;-57
2022/06/05 04:50:05;;;;;;;3.10;2.90;;;;;22.00;100418.00;;;;2053358;28;20226;-56
2022/06/05 04:51:06;;;;;;;2.80;2.60;;;;;22.00;100426.00;;;;2053749;28;20215;-57
2022/06/05 04:52:06;;;;;;;3.10;2.90;;;;;22.00;100420.00;;;;2069791;28;20553;-58
2022/06/05 04:53:07;;;;;;;3.20;3.00;;;;;22.00;100421.00;;;;2069825;28;20945;-57
2022/06/05 04:54:08;;;;;;;3.00;2.80;;;;;22.00;100422.00;;;;2070534;28;20217;-56
2022/06/05 04:55:08;;;;;;;3.20;2.92;;;;;22.00;100429.00;;;;2069251;28;20253;-56
2022/06/05 04:56:10;;;;;;;3.40;3.20;;;;;22.00;100429.00;;;;2068394;28;20222;-57
2022/06/05 04:57:11;;;;;;;3.40;3.20;;;;;22.00;100441.00;;;;2070331;28;20214;-58
2022/06/05 04:58:11;;;;;;;2.83;2.63;;;;;22.00;100436.00;;;;2070290;28;20265;-57
2022/06/05 04:59:12;;;;;;;2.87;2.67;;;;;22.00;100443.00;;;;2069240;28;20214;-57
2022/06/05 05:00:12;;;;;;;2.90;2.70;;;;;22.00;100442.00;;;;2061662;28;20723;-57
2022/06/05 05:01:19;;;;;;;3.00;2.80;;;;;22.00;100447.00;;;;2069462;28;20225;-57
2022/06/05 05:02:19;;;;;;;3.50;3.30;;;;;22.00;100450.00;;;;2068599;28;20992;-56
2022/06/05 05:03:20;;;;;;;2.90;2.70;;;;;22.00;100449.00;;;;2069787;28;20206;-56
2022/06/05 05:04:20;;;;;;;3.20;3.00;;;;;22.00;100399.00;;;;2070195;28;20217;-55
2022/06/05 05:05:20;;;;;;;3.00;2.80;;;;;22.00;100453.00;;;;2069844;28;20635;-57
2022/06/05 05:06:21;;;;;;;3.00;2.80;;;;;22.00;100442.00;;;;2069900;28;20682;-58
2022/06/05 05:07:21;;;;;;;3.37;3.17;;;;;22.00;100443.00;;;;2070243;28;20810;-58
2022/06/05 05:08:22;;;;;;;3.27;2.97;;;;;22.00;100446.00;;;;2069789;28;20265;-58
2022/06/05 05:09:22;;;;;;;3.37;3.17;;;;;22.00;100446.00;;;;2069706;28;20210;-58
2022/06/05 05:10:22;;;;;;;3.03;2.83;;;;;22.00;100447.00;;;;2069569;28;20586;-58
2022/06/05 05:11:23;;;;;;;3.40;3.20;;;;;22.00;100445.00;;;;2069260;28;20598;-57
2022/06/05 05:12:23;;;;;;;2.70;2.50;;;;;22.00;100443.00;;;;2061457;28;20716;-58
2022/06/05 05:13:23;;;;;;;3.20;3.00;;;;;22.00;100442.00;;;;2068521;28;20390;-57
2022/06/05 05:14:24;;;;;;;2.80;2.60;;;;;22.00;100451.00;;;;2074102;28;20230;-57
2022/06/05 05:15:24;;;;;;;3.27;3.07;;;;;22.00;100453.00;;;;2069522;28;20313;-55
2022/06/05 05:16:25;;;;;;;3.07;2.87;;;;;22.00;100439.00;;;;2070019;28;20264;-56
2022/06/05 05:17:25;;;;;;;3.17;2.97;;;;;22.00;100456.00;;;;2053237;28;20255;-59
2022/06/05 05:18:26;;;;;;;2.80;2.60;;;;;22.00;100461.00;;;;2053602;28;20459;-58
2022/06/05 05:19:26;;;;;;;3.17;2.97;;;;;22.00;100458.00;;;;2070200;28;20258;-59
2022/06/05 05:20:26;;;;;;;2.97;2.77;;;;;22.00;100467.00;;;;2070316;28;20241;-57
2022/06/05 05:21:27;;;;;;;3.17;2.97;;;;;22.00;100461.00;;;;2069460;28;20218;-55
2022/06/05 05:22:27;;;;;;;3.20;3.00;;;;;22.00;100463.00;;;;2061106;28;20325;-56